Time;durP1;ratioP1;P1;durP2;ratioP2;P2;SDS_P1;SDS_P2;PMS_P1;PMS_P2;Temp;Humidity;BMP_temperature;BMP_pressure;BME280_temperature;BME280_humidity;BME280_pressure;Samples;Min_cycle;Max_cycle;Signal;HPM_P1;HPM_P2
2022/08/28 00:01:56;;;;;;;9.57;6.43;;;;;;;21.62;68.66;94503.00;4976171;28;20280;-79
2022/08/28 00:04:25;;;;;;;10.77;6.15;;;;;;;21.65;68.47;94503.38;4991131;28;20204;-80
2022/08/28 00:06:51;;;;;;;10.10;6.00;;;;;;;21.65;68.28;94508.59;4990447;28;20320;-80
2022/08/28 00:09:19;;;;;;;9.50;6.28;;;;;;;21.65;68.77;94498.19;4990899;28;20197;-80
2022/08/28 00:11:46;;;;;;;10.70;6.28;;;;;;;21.59;68.72;94501.63;4990608;28;20208;-81
2022/08/28 00:14:13;;;;;;;9.70;6.38;;;;;;;21.59;69.32;94496.44;4990334;28;20677;-78
2022/08/28 00:16:40;;;;;;;9.75;6.38;;;;;;;21.57;69.48;94495.81;4990393;28;20236;-79
2022/08/28 00:19:08;;;;;;;10.52;6.55;;;;;;;21.50;69.16;94490.69;4990591;28;20201;-81
2022/08/28 00:21:36;;;;;;;12.20;6.63;;;;;;;21.59;69.25;94503.41;4990747;28;20192;-79
2022/08/28 00:24:04;;;;;;;12.15;6.20;;;;;;;21.25;69.33;94453.38;4990296;28;20197;-79
2022/08/28 00:29:16;;;;;;;13.88;6.82;;;;;;;21.47;69.34;94496.28;4990333;28;20243;-77
2022/08/28 00:31:44;;;;;;;13.68;5.72;;;;;;;21.45;69.38;94506.09;4990167;28;20212;-80
2022/08/28 00:34:11;;;;;;;13.18;6.47;;;;;;;21.41;69.61;94504.13;4990141;28;20637;-79
2022/08/28 00:36:40;;;;;;;11.45;5.97;;;;;;;21.38;69.90;94501.97;4990356;28;20189;-79
2022/08/28 00:39:08;;;;;;;12.48;6.07;;;;;;;21.05;70.35;94463.88;4989920;28;20259;-79
2022/08/28 00:41:37;;;;;;;9.63;6.38;;;;;;;21.33;70.32;94507.78;4990213;28;20214;-79
2022/08/28 00:44:12;;;;;;;11.68;6.68;;;;;;;21.23;70.66;94499.59;4989867;28;20251;-79
2022/08/28 00:46:39;;;;;;;14.73;6.38;;;;;;;21.25;71.13;94511.41;4990201;28;20698;-80
2022/08/28 00:49:06;;;;;;;14.13;6.97;;;;;;;21.13;71.13;94483.66;4989857;28;20664;-80
2022/08/28 00:54:22;;;;;;;11.65;6.35;;;;;;;21.01;70.87;94476.50;4990031;28;20199;-77
2022/08/28 00:56:52;;;;;;;12.15;7.07;;;;;;;21.03;70.88;94477.09;4990103;28;20200;-80
2022/08/28 00:59:23;;;;;;;9.95;5.95;;;;;;;21.19;71.43;94511.41;4990233;28;20215;-77
2022/08/28 01:01:55;;;;;;;15.02;6.45;;;;;;;21.17;71.60;94509.03;4990142;28;20215;-78
2022/08/28 01:04:23;;;;;;;15.25;6.53;;;;;;;21.07;71.96;94495.69;4990043;28;20189;-77
2022/08/28 01:06:54;;;;;;;9.20;6.68;;;;;;;21.12;72.12;94508.88;4990648;28;20228;-77
2022/08/28 01:09:24;;;;;;;12.75;7.03;;;;;;;20.90;72.21;94466.75;4993865;28;20244;-78
2022/08/28 01:11:55;;;;;;;9.65;6.50;;;;;;;20.89;72.71;94482.53;4994098;28;20185;-78
2022/08/28 01:14:23;;;;;;;14.63;6.65;;;;;;;21.04;72.53;94494.28;4993598;28;20221;-77
2022/08/28 01:16:54;;;;;;;11.55;6.20;;;;;;;21.00;72.65;94497.50;4976139;28;20270;-76
2022/08/28 01:19:32;;;;;;;9.55;6.47;;;;;;;20.70;72.95;94456.44;4993710;28;20200;-76
2022/08/28 01:22:09;;;;;;;8.13;5.70;;;;;;;20.98;72.87;94508.13;4994029;28;20195;-76
2022/08/28 01:24:39;;;;;;;10.80;7.00;;;;;;;21.00;72.72;94506.09;4993793;28;20193;-79
2022/08/28 01:27:06;;;;;;;13.38;6.20;;;;;;;20.72;72.44;94462.22;4993449;28;20230;-80
2022/08/28 01:29:36;;;;;;;11.38;5.93;;;;;;;20.75;72.76;94477.41;4993440;28;20193;-80
2022/08/28 01:32:04;;;;;;;8.98;6.45;;;;;;;20.92;72.40;94489.94;4993560;28;20196;-81
2022/08/28 01:34:31;;;;;;;16.00;6.72;;;;;;;20.98;71.95;94505.53;4993468;28;20193;-82
2022/08/28 01:36:58;;;;;;;9.00;6.28;;;;;;;20.97;72.07;94503.91;4993783;28;20216;-83
2022/08/28 01:39:27;;;;;;;12.98;6.60;;;;;;;20.94;72.35;94503.53;4993283;28;20201;-78
2022/08/28 01:41:58;;;;;;;10.65;6.40;;;;;;;20.93;72.32;94515.72;4993630;28;20211;-79
2022/08/28 01:44:27;;;;;;;11.07;6.80;;;;;;;20.89;72.70;94504.13;4993149;28;20587;-78
2022/08/28 01:46:57;;;;;;;11.90;6.18;;;;;;;20.86;72.54;94512.38;4993024;28;20232;-78
2022/08/28 01:49:28;;;;;;;10.63;6.57;;;;;;;20.82;73.21;94507.78;4993060;28;20204;-77
2022/08/28 01:51:56;;;;;;;11.02;6.00;;;;;;;20.81;73.12;94517.38;4993184;28;20220;-79
2022/08/28 01:54:24;;;;;;;7.22;6.25;;;;;;;20.73;73.22;94502.03;4993053;28;20201;-79
2022/08/28 01:56:51;;;;;;;13.88;6.30;;;;;;;20.77;72.86;94511.78;4993221;28;20185;-79
2022/08/28 01:59:19;;;;;;;10.13;6.35;;;;;;;20.77;73.02;94508.41;4992940;28;20197;-77
2022/08/28 02:01:46;;;;;;;11.13;5.85;;;;;;;20.70;72.41;94495.41;4993208;28;20193;-78
2022/08/28 02:04:13;;;;;;;7.18;6.47;;;;;;;20.76;73.24;94511.97;4993081;28;20200;-77
2022/08/28 02:06:41;;;;;;;11.10;6.22;;;;;;;20.69;74.08;94506.81;4992565;28;20568;-77
2022/08/28 02:09:08;;;;;;;13.97;7.43;;;;;;;20.54;73.60;94499.25;4992738;28;20666;-77
2022/08/28 02:11:35;;;;;;;10.82;6.57;;;;;;;20.67;74.26;94515.81;4993113;28;20201;-77
2022/08/28 02:14:03;;;;;;;11.88;5.90;;;;;;;20.54;74.54;94501.84;4992458;28;20229;-78
2022/08/28 02:16:31;;;;;;;11.47;6.37;;;;;;;20.62;74.75;94515.63;4993052;28;20196;-78
2022/08/28 02:18:59;;;;;;;9.83;6.20;;;;;;;20.60;74.61;94505.44;4991914;28;20185;-78
2022/08/28 02:21:26;;;;;;;13.65;6.60;;;;;;;20.58;74.96;94512.63;4992671;28;20185;-77
2022/08/28 02:23:53;;;;;;;11.30;6.90;;;;;;;20.50;74.79;94498.06;4992630;28;20680;-78
2022/08/28 02:26:22;;;;;;;9.10;6.37;;;;;;;20.56;74.68;94506.06;4992512;28;20699;-78
2022/08/28 02:28:49;;;;;;;12.68;5.82;;;;;;;20.33;75.16;94477.88;4992680;28;20207;-77
2022/08/28 02:31:16;;;;;;;9.60;6.20;;;;;;;20.52;75.26;94510.88;4992195;28;20263;-78
2022/08/28 02:33:46;;;;;;;8.27;5.63;;;;;;;20.49;75.62;94514.66;4992637;28;20197;-78
2022/08/28 02:36:14;;;;;;;9.65;6.50;;;;;;;20.50;75.48;94516.25;4992361;28;20197;-78
2022/08/28 02:38:41;;;;;;;10.93;6.45;;;;;;;20.47;75.70;94521.03;4992357;28;20200;-80
2022/08/28 02:41:08;;;;;;;13.98;6.28;;;;;;;20.43;76.11;94519.84;4992363;28;20237;-80
2022/08/28 02:43:36;;;;;;;9.67;6.20;;;;;;;20.24;76.14;94490.28;4992301;28;20204;-79
2022/08/28 02:46:03;;;;;;;12.60;6.10;;;;;;;20.33;76.11;94507.25;4992245;28;20235;-80
2022/08/28 02:48:32;;;;;;;12.50;6.10;;;;;;;20.38;76.38;94520.47;4992392;28;20223;-78
2022/08/28 02:51:02;;;;;;;13.27;6.93;;;;;;;20.13;75.92;94476.13;4992098;28;20199;-80
2022/08/28 02:53:30;;;;;;;10.60;5.63;;;;;;;20.28;75.94;94513.06;4992430;28;20270;-81
2022/08/28 02:55:57;;;;;;;11.47;6.20;;;;;;;20.35;76.35;94525.25;4991829;28;20630;-81
2022/08/28 02:58:25;;;;;;;9.93;6.60;;;;;;;20.34;76.21;94521.06;4992015;28;20687;-80
2022/08/28 03:00:53;;;;;;;12.90;6.67;;;;;;;20.37;75.51;94523.22;4991876;28;20255;-80
2022/08/28 03:03:20;;;;;;;12.43;6.97;;;;;;;20.14;76.05;94493.31;4992060;28;20192;-81
2022/08/28 03:05:48;;;;;;;13.77;6.37;;;;;;;20.29;76.72;94524.25;4991718;28;20572;-81
2022/08/28 03:08:16;;;;;;;9.33;6.30;;;;;;;20.29;76.31;94525.06;4991762;28;20281;-80
2022/08/28 03:10:43;;;;;;;14.37;6.80;;;;;;;20.24;76.76;94524.84;4992083;28;20201;-79
2022/08/28 03:13:12;;;;;;;12.57;7.00;;;;;;;20.24;77.09;94526.66;4991842;28;20229;-80
2022/08/28 03:15:42;;;;;;;13.70;6.73;;;;;;;20.23;76.76;94528.44;4992180;28;20200;-80
2022/08/28 03:18:09;;;;;;;12.27;6.93;;;;;;;20.24;76.47;94529.25;4991639;28;20193;-80
2022/08/28 03:20:36;;;;;;;10.47;6.67;;;;;;;20.22;76.94;94533.84;4992114;28;20702;-81
2022/08/28 03:25:59;;;;;;;8.73;6.40;;;;;;;20.20;76.67;94528.03;4931489;29;20187;-82
2022/08/28 03:28:28;;;;;;;12.50;6.43;;;;;;;20.17;77.18;94525.88;4931472;29;20192;-78
2022/08/28 03:30:56;;;;;;;11.80;6.60;;;;;;;19.61;77.09;94432.84;4930243;29;20203;-78
2022/08/28 03:33:24;;;;;;;7.03;6.20;;;;;;;20.16;77.40;94521.66;4931353;29;20670;-78
2022/08/28 03:35:50;;;;;;;9.50;6.37;;;;;;;20.08;77.27;94516.66;4931455;29;20203;-79
2022/08/28 03:38:18;;;;;;;12.83;6.27;;;;;;;20.15;77.76;94531.25;4931007;29;20222;-79
2022/08/28 03:40:46;;;;;;;15.53;6.53;;;;;;;20.03;77.38;94512.91;4931542;29;20190;-79
2022/08/28 03:43:18;;;;;;;10.27;7.20;;;;;;;20.12;77.87;94536.03;4931092;29;20202;-81
2022/08/28 03:45:53;;;;;;;8.60;6.37;;;;;;;20.11;78.16;94537.84;4931796;29;20282;-78
2022/08/28 03:48:22;;;;;;;7.67;6.03;;;;;;;20.10;77.73;94535.44;4931186;29;20197;-78
2022/08/28 03:50:50;;;;;;;12.93;6.60;;;;;;;20.00;78.15;94528.06;4932408;29;20254;-80
2022/08/28 03:53:17;;;;;;;10.73;6.73;;;;;;;20.03;78.38;94541.47;4931456;29;20250;-79
2022/08/28 03:55:44;;;;;;;11.67;6.23;;;;;;;19.87;78.28;94523.66;4931864;29;20198;-78
2022/08/28 03:58:11;;;;;;;8.87;6.30;;;;;;;19.86;78.10;94529.03;4931916;29;20571;-80
2022/08/28 04:00:40;;;;;;;14.63;7.03;;;;;;;20.10;76.77;94556.22;4935819;28;20294;-79
2022/08/28 04:03:07;;;;;;;13.70;7.00;;;;;;;20.04;77.57;94556.03;5014578;28;20199;-78
2022/08/28 04:05:34;;;;;;;11.07;6.73;;;;;;;19.35;78.12;94446.56;5015147;28;20192;-80
2022/08/28 04:08:02;;;;;;;11.60;6.27;;;;;;;19.80;78.56;94528.84;5013919;28;20225;-79
2022/08/28 04:10:30;;;;;;;14.37;6.43;;;;;;;20.04;78.51;94568.22;4996678;28;20236;-81
2022/08/28 04:12:57;;;;;;;9.73;6.50;;;;;;;20.04;78.58;94561.22;4991135;28;20651;-79
2022/08/28 04:15:24;;;;;;;18.13;6.90;;;;;;;19.99;78.78;94555.00;4994082;28;20197;-76
2022/08/28 04:17:52;;;;;;;12.80;6.43;;;;;;;20.05;78.78;94564.59;4990886;28;20196;-77
2022/08/28 04:20:20;;;;;;;13.53;6.80;;;;;;;20.03;78.78;94567.41;4991073;28;20193;-77
2022/08/28 04:22:47;;;;;;;10.30;6.17;;;;;;;20.02;78.77;94565.00;4990765;28;20640;-77
2022/08/28 04:25:14;;;;;;;11.23;6.27;;;;;;;20.10;78.84;94579.59;4990655;28;20224;-77
2022/08/28 04:27:41;;;;;;;13.83;7.17;;;;;;;20.00;78.57;94557.41;4991258;28;20243;-77
2022/08/28 04:30:09;;;;;;;14.50;6.73;;;;;;;20.17;78.64;94581.19;4990649;28;20196;-78
2022/08/28 04:32:37;;;;;;;14.40;7.07;;;;;;;20.24;78.57;94581.19;4990899;28;20189;-79
2022/08/28 04:35:08;;;;;;;10.67;6.23;;;;;;;20.17;78.19;94572.63;4990687;28;20200;-79
2022/08/28 04:37:35;;;;;;;12.43;6.37;;;;;;;20.38;77.59;94587.16;4990913;28;20244;-78
2022/08/28 04:40:04;;;;;;;16.83;6.73;;;;;;;20.42;77.24;94593.56;4990156;28;20195;-79
2022/08/28 04:42:31;;;;;;;11.53;6.40;;;;;;;20.48;76.44;94592.81;4990583;28;20264;-78
2022/08/28 04:44:58;;;;;;;10.83;6.33;;;;;;;20.52;75.83;94583.59;4990465;28;20237;-78
2022/08/28 04:47:26;;;;;;;15.50;6.47;;;;;;;20.62;75.13;94578.00;4990293;28;20232;-80
2022/08/28 04:49:54;;;;;;;13.47;6.77;;;;;;;20.78;74.93;94593.97;4991457;28;20197;-80
2022/08/28 04:52:22;;;;;;;10.40;5.70;;;;;;;20.82;74.48;94580.56;4990612;28;20251;-79
2022/08/28 04:54:49;;;;;;;12.20;7.18;;;;;;;20.80;73.98;94575.56;4990080;28;20734;-80
2022/08/28 04:57:16;;;;;;;12.68;6.00;;;;;;;20.83;73.71;94575.16;4989964;28;20204;-81
2022/08/28 04:59:44;;;;;;;12.65;6.65;;;;;;;20.78;73.44;94547.19;4990106;28;20208;-78
2022/08/28 05:02:11;;;;;;;17.25;6.95;;;;;;;21.16;72.72;94605.47;4991233;28;20248;-78
2022/08/28 05:04:38;;;;;;;13.73;6.68;;;;;;;20.82;72.86;94572.78;4990661;28;20197;-77
2022/08/28 05:07:05;;;;;;;17.05;7.40;;;;;;;20.25;72.77;94516.06;4990531;28;20712;-78
2022/08/28 05:09:33;;;;;;;10.20;6.50;;;;;;;20.75;72.75;94588.38;4990628;28;20248;-80
2022/08/28 05:12:02;;;;;;;19.63;6.80;;;;;;;20.67;72.59;94557.38;4990246;28;20197;-78
2022/08/28 05:14:29;;;;;;;11.82;6.38;;;;;;;21.07;72.65;94609.28;4989962;28;20248;-79
2022/08/28 05:16:57;;;;;;;13.13;7.05;;;;;;;21.00;72.45;94580.72;4989732;28;20295;-80
2022/08/28 05:19:25;;;;;;;13.32;6.68;;;;;;;20.90;71.70;94549.94;4990335;28;20185;-77
2022/08/28 05:21:53;;;;;;;14.15;6.90;;;;;;;21.40;71.93;94610.00;4989722;28;20279;-78
2022/08/28 05:24:21;;;;;;;9.82;6.93;;;;;;;21.46;72.35;94614.41;4989990;28;20185;-79
2022/08/28 05:26:49;;;;;;;10.55;6.40;;;;;;;21.67;71.65;94615.09;4989664;28;20282;-79
2022/08/28 05:29:16;;;;;;;9.18;6.30;;;;;;;21.82;71.72;94617.44;4989892;28;20197;-78
2022/08/28 05:31:44;;;;;;;15.10;6.60;;;;;;;21.98;70.48;94617.72;4989743;28;20204;-78
2022/08/28 05:34:10;;;;;;;14.15;6.90;;;;;;;22.08;69.40;94619.06;4989894;28;20196;-79
2022/08/28 05:36:38;;;;;;;18.05;6.65;;;;;;;22.15;69.52;94617.22;4989805;28;20669;-79
2022/08/28 05:39:07;;;;;;;12.07;7.13;;;;;;;22.43;69.07;94622.84;4989789;28;20197;-78
2022/08/28 05:41:35;;;;;;;15.35;7.07;;;;;;;22.62;68.01;94633.31;4989664;28;20204;-76
2022/08/28 05:44:07;;;;;;;12.32;6.38;;;;;;;22.68;67.29;94633.28;4990009;28;20186;-77
2022/08/28 05:46:36;;;;;;;11.65;6.40;;;;;;;22.87;66.79;94631.47;4989847;28;20208;-76
2022/08/28 05:49:03;;;;;;;12.68;6.75;;;;;;;22.97;66.48;94628.41;4989794;28;20185;-78
2022/08/28 05:51:31;;;;;;;12.65;6.70;;;;;;;22.98;65.59;94630.03;4989680;28;20193;-77
2022/08/28 05:53:58;;;;;;;15.20;6.57;;;;;;;22.92;64.97;94586.53;4990721;28;20296;-77
2022/08/28 05:56:28;;;;;;;15.98;6.60;;;;;;;22.95;64.00;94573.06;4993603;28;20185;-81
2022/08/28 05:58:55;;;;;;;15.85;6.15;;;;;;;23.25;64.01;94596.63;4993592;28;20189;-79
2022/08/28 06:01:27;;;;;;;13.07;6.35;;;;;;;23.31;63.30;94574.06;4993730;28;20193;-81
2022/08/28 06:03:56;;;;;;;7.55;6.32;;;;;;;23.87;62.98;94639.03;4993612;28;20197;-82
2022/08/28 06:06:24;;;;;;;15.57;6.70;;;;;;;24.02;62.48;94621.16;4993640;28;20201;-78
2022/08/28 06:08:55;;;;;;;12.15;5.85;;;;;;;24.15;62.33;94598.47;4993312;28;20240;-78
2022/08/28 06:11:22;;;;;;;11.18;6.25;;;;;;;24.59;61.25;94631.19;4993219;28;20196;-79
2022/08/28 06:13:50;;;;;;;12.25;6.70;;;;;;;24.80;61.00;94631.66;4993053;28;20232;-79
2022/08/28 06:16:17;;;;;;;10.75;6.03;;;;;;;25.02;61.10;94633.47;4993195;28;20197;-80
2022/08/28 06:18:46;;;;;;;11.30;5.40;;;;;;;25.25;60.17;94630.06;4984808;28;20203;-77
2022/08/28 06:21:13;;;;;;;13.88;6.00;;;;;;;25.26;58.80;94618.59;4993087;28;20260;-77
2022/08/28 06:23:40;;;;;;;14.70;6.45;;;;;;;25.49;56.67;94636.06;4992993;28;20211;-78
2022/08/28 06:26:07;;;;;;;12.27;6.35;;;;;;;25.53;56.32;94628.53;4992706;28;20413;-80
2022/08/28 06:28:34;;;;;;;14.25;6.85;;;;;;;25.49;56.41;94625.56;4992940;28;20223;-79
2022/08/28 06:31:03;;;;;;;15.05;6.57;;;;;;;25.42;56.62;94627.53;4992759;28;20200;-79
2022/08/28 06:33:32;;;;;;;10.90;5.60;;;;;;;25.54;56.40;94624.88;4992928;28;20181;-79
2022/08/28 06:36:04;;;;;;;18.67;6.22;;;;;;;25.81;57.24;94638.25;4993035;28;20219;-78
2022/08/28 06:38:31;;;;;;;13.02;5.57;;;;;;;26.05;57.08;94644.22;4992753;28;20208;-79
2022/08/28 06:40:58;;;;;;;12.13;6.65;;;;;;;26.12;54.47;94642.25;4992501;28;20201;-77
2022/08/28 06:43:28;;;;;;;15.75;6.07;;;;;;;25.95;54.31;94615.19;4992492;28;20549;-79
2022/08/28 06:45:57;;;;;;;14.25;5.85;;;;;;;25.94;54.29;94629.31;4992702;28;20224;-78
2022/08/28 06:48:26;;;;;;;12.48;6.28;;;;;;;26.07;54.44;94641.34;4992826;28;20221;-78
2022/08/28 06:50:54;;;;;;;17.98;7.20;;;;;;;26.14;53.91;94640.16;4992726;28;20181;-79
2022/08/28 06:53:25;;;;;;;22.60;7.68;;;;;;;25.91;54.55;94620.13;4992416;28;20276;-78
2022/08/28 06:56:01;;;;;;;14.55;7.32;;;;;;;26.11;53.84;94642.47;4992817;28;20216;-81
2022/08/28 06:58:29;;;;;;;13.75;7.50;;;;;;;26.10;54.29;94633.81;4992351;28;20196;-79
2022/08/28 07:01:10;;;;;;;13.23;8.18;;;;;;;26.31;54.63;94645.44;4992425;28;20196;-79
2022/08/28 07:03:37;;;;;;;21.80;9.00;;;;;;;26.44;54.56;94636.50;4992037;28;20255;-80
2022/08/28 07:06:06;;;;;;;11.93;7.90;;;;;;;26.52;54.72;94641.34;4991872;28;20193;-78
2022/08/28 07:08:36;;;;;;;14.80;8.13;;;;;;;26.54;53.65;94612.25;4991986;28;20216;-78
2022/08/28 07:11:10;;;;;;;13.63;8.23;;;;;;;26.81;53.86;94636.00;4992064;28;20291;-79
2022/08/28 07:13:37;;;;;;;15.13;6.93;;;;;;;26.72;53.33;94607.53;4992027;28;20225;-78
2022/08/28 07:16:04;;;;;;;13.82;6.97;;;;;;;27.00;52.84;94632.91;4991795;28;20193;-78
2022/08/28 07:18:30;;;;;;;19.10;7.25;;;;;;;27.03;52.63;94642.13;4991701;28;20204;-78
2022/08/28 07:20:59;;;;;;;12.80;7.30;;;;;;;27.12;52.11;94632.84;4991663;28;20193;-80
2022/08/28 07:23:26;;;;;;;13.88;6.35;;;;;;;27.08;52.23;94618.56;4991957;28;20193;-78
2022/08/28 07:25:55;;;;;;;9.35;6.40;;;;;;;27.19;52.99;94641.31;4991937;28;20208;-81
2022/08/28 07:28:22;;;;;;;16.00;6.38;;;;;;;27.29;53.13;94634.59;4991608;28;20723;-79
2022/08/28 07:30:58;;;;;;;13.55;6.00;;;;;;;27.36;52.18;94633.38;4991595;28;20673;-80
2022/08/28 07:33:25;;;;;;;11.95;7.32;;;;;;;27.41;51.54;94637.91;4991860;28;20661;-81
2022/08/28 07:35:52;;;;;;;9.68;6.03;;;;;;;27.46;52.25;94630.91;4991624;28;20295;-82
2022/08/28 07:38:19;;;;;;;18.85;6.28;;;;;;;27.52;50.25;94613.38;4991570;28;20201;-81
2022/08/28 07:40:46;;;;;;;16.02;6.80;;;;;;;27.80;50.51;94637.88;4991207;28;20199;-80
2022/08/28 07:46:00;;;;;;;11.75;5.80;;;;;;;28.27;49.22;94607.31;4991083;28;20293;-79
2022/08/28 07:48:27;;;;;;;19.88;6.38;;;;;;;28.68;48.15;94620.03;4991196;28;20223;-80
2022/08/28 07:50:54;;;;;;;15.02;6.20;;;;;;;28.99;46.52;94623.69;4991143;28;20193;-82
2022/08/28 07:53:22;;;;;;;8.48;5.20;;;;;;;29.25;45.80;94620.13;4991045;28;20197;-81
2022/08/28 07:55:50;;;;;;;22.02;6.10;;;;;;;29.43;46.75;94612.84;4991358;28;20204;-80
2022/08/28 07:58:19;;;;;;;12.88;5.57;;;;;;;29.65;46.16;94624.03;4991611;28;20259;-81
2022/08/28 08:00:46;;;;;;;13.43;5.97;;;;;;;29.63;45.87;94615.59;4990996;28;20197;-80
2022/08/28 08:03:15;;;;;;;17.30;5.45;;;;;;;29.78;46.23;94619.31;4991455;28;20192;-81
2022/08/28 08:05:42;;;;;;;9.43;5.82;;;;;;;29.89;45.52;94620.94;4990824;28;20205;-81
2022/08/28 08:08:09;;;;;;;9.95;5.05;;;;;;;29.95;44.54;94620.69;4990863;28;20225;-82
2022/08/28 08:10:36;;;;;;;10.52;5.07;;;;;;;30.15;43.12;94629.72;4990251;28;20684;-80
2022/08/28 08:13:03;;;;;;;9.15;4.78;;;;;;;30.26;43.59;94623.38;4990857;28;20673;-78
2022/08/28 08:15:33;;;;;;;11.10;4.55;;;;;;;30.39;43.94;94622.09;4990358;28;20284;-81
2022/08/28 08:18:00;;;;;;;14.55;4.95;;;;;;;30.44;43.94;94627.34;4990436;28;20197;-79
2022/08/28 08:20:27;;;;;;;10.43;5.35;;;;;;;30.49;43.76;94625.53;4990822;28;20235;-83
2022/08/28 08:22:54;;;;;;;7.75;4.65;;;;;;;30.59;43.71;94618.66;4990915;28;20244;-80
2022/08/28 08:25:21;;;;;;;8.90;5.22;;;;;;;30.52;43.57;94611.00;4990623;28;20185;-83
2022/08/28 08:27:47;;;;;;;14.20;5.72;;;;;;;30.57;43.75;94621.59;4990516;28;20224;-82
2022/08/28 08:30:14;;;;;;;17.55;5.47;;;;;;;30.74;42.64;94626.59;4990307;28;20193;-81
2022/08/28 08:32:43;;;;;;;8.07;4.80;;;;;;;30.75;42.25;94622.91;4990552;28;20212;-78
2022/08/28 08:35:11;;;;;;;11.05;5.32;;;;;;;30.65;42.56;94607.81;4990816;28;20309;-77
2022/08/28 08:37:38;;;;;;;14.93;5.60;;;;;;;30.79;43.09;94608.13;4990714;28;20263;-79
2022/08/28 08:40:07;;;;;;;7.60;4.72;;;;;;;30.83;43.58;94595.16;4990413;28;20204;-78
2022/08/28 08:42:36;;;;;;;16.80;5.75;;;;;;;31.02;43.75;94614.69;4989979;28;20200;-83
2022/08/28 08:45:06;;;;;;;12.95;5.28;;;;;;;31.10;42.67;94613.34;4990209;28;20247;-81
2022/08/28 08:47:38;;;;;;;9.85;6.25;;;;;;;31.23;42.65;94618.06;4990113;28;20196;-82
2022/08/28 08:50:09;;;;;;;12.90;6.13;;;;;;;31.31;42.69;94608.84;4990262;28;20197;-79
2022/08/28 08:52:49;;;;;;;16.42;5.95;;;;;;;31.45;42.20;94615.13;4990300;28;20428;-77
2022/08/28 08:55:25;;;;;;;9.93;6.07;;;;;;;31.57;41.96;94615.59;4990240;28;20204;-82
2022/08/28 08:57:59;;;;;;;13.02;5.38;;;;;;;31.64;42.13;94615.28;4990361;28;20192;-80
2022/08/28 09:00:26;;;;;;;10.65;6.05;;;;;;;31.70;41.50;94611.56;4990425;28;20188;-79
2022/08/28 09:03:02;;;;;;;9.52;5.47;;;;;;;31.74;41.57;94617.91;4989999;28;20193;-79
2022/08/28 09:05:44;;;;;;;8.75;4.75;;;;;;;31.55;41.91;94593.13;4990474;28;20216;-79
2022/08/28 09:08:27;;;;;;;14.68;5.43;;;;;;;31.50;41.58;94617.72;4990319;28;20532;-82
2022/08/28 09:11:02;;;;;;;13.38;4.88;;;;;;;31.44;41.81;94589.75;4990487;28;20536;-80
2022/08/28 09:13:38;;;;;;;16.95;5.38;;;;;;;31.58;41.88;94608.44;4990246;28;20224;-80
2022/08/28 09:16:13;;;;;;;11.27;6.25;;;;;;;31.59;42.01;94604.75;4990236;28;20288;-77
2022/08/28 09:18:41;;;;;;;13.35;5.45;;;;;;;31.67;41.29;94612.09;4990420;28;20206;-80
2022/08/28 09:21:10;;;;;;;13.32;5.47;;;;;;;31.65;41.71;94604.47;4989952;28;20186;-81
2022/08/28 09:23:37;;;;;;;14.40;6.05;;;;;;;31.75;41.76;94613.41;4990217;28;20197;-82
2022/08/28 09:26:08;;;;;;;26.27;6.45;;;;;;;31.70;42.23;94609.72;4990001;28;20204;-79
2022/08/28 09:28:37;;;;;;;9.55;5.50;;;;;;;31.68;41.11;94603.91;4990550;28;20307;-81
2022/08/28 09:31:06;;;;;;;10.35;5.53;;;;;;;31.51;41.79;94594.72;4993928;28;20705;-82
2022/08/28 09:33:40;;;;;;;14.95;6.03;;;;;;;31.45;42.30;94597.41;4994063;28;20193;-81
2022/08/28 09:36:38;;;;;;;15.63;5.45;;;;;;;31.18;42.02;94587.16;4994101;28;20625;-80
2022/08/28 09:39:10;;;;;;;13.02;6.13;;;;;;;31.32;42.28;94602.47;4933791;29;20194;-80
2022/08/28 09:44:33;;;;;;;11.45;6.10;;;;;;;31.47;41.99;94597.91;4933814;29;20843;-80
2022/08/28 09:47:00;;;;;;;11.95;6.40;;;;;;;31.57;42.52;94598.94;4934563;29;20283;-79
2022/08/28 09:49:29;;;;;;;13.27;6.10;;;;;;;31.66;41.38;94595.47;4933446;29;20230;-80
2022/08/28 09:52:00;;;;;;;12.05;6.47;;;;;;;31.62;41.55;94575.13;4933850;29;20227;-81
2022/08/28 09:54:34;;;;;;;9.98;5.55;;;;;;;31.73;41.20;94585.34;4933341;29;20199;-80
2022/08/28 09:57:02;;;;;;;15.52;5.80;;;;;;;31.77;41.38;94577.66;4933861;29;20195;-80
2022/08/28 09:59:30;;;;;;;14.25;5.53;;;;;;;31.77;41.78;94571.59;4943482;29;20206;-81
2022/08/28 10:02:19;;;;;;;11.43;5.43;;;;;;;31.79;41.54;94575.56;4939598;29;20307;-79
2022/08/28 10:05:11;;;;;;;15.65;6.05;;;;;;;31.84;40.61;94580.84;4935882;29;20587;-81
2022/08/28 10:07:55;;;;;;;10.73;5.65;;;;;;;31.27;40.59;94492.25;4907169;29;20262;-80
2022/08/28 10:10:34;;;;;;;10.85;5.65;;;;;;;29.94;40.03;94317.69;4936344;29;20213;-79
2022/08/28 10:13:10;;;;;;;11.77;4.90;;;;;;;30.81;39.80;94468.69;4959245;28;20244;-79
2022/08/28 10:15:54;;;;;;;15.00;6.50;;;;;;;31.60;40.16;94570.09;4996146;28;20196;-79
2022/08/28 10:18:42;;;;;;;9.80;5.18;;;;;;;29.93;39.67;94306.34;4996159;28;20202;-80
2022/08/28 10:21:25;;;;;;;8.82;5.28;;;;;;;30.76;39.41;94413.25;4995128;28;20198;-80
2022/08/28 10:24:26;;;;;;;8.55;5.40;;;;;;;31.85;39.88;94569.19;4996617;28;20185;-79
2022/08/28 10:27:13;;;;;;;11.55;6.28;;;;;;;30.52;39.55;94352.31;4997284;28;20189;-79
2022/08/28 10:29:53;;;;;;;10.75;5.40;;;;;;;30.18;39.52;94309.97;4995210;28;20290;-78
2022/08/28 10:33:10;;;;;;;8.57;6.45;;;;;;;29.94;39.04;94262.31;4994142;28;20208;-78
2022/08/28 10:35:52;;;;;;;11.23;5.45;;;;;;;29.93;38.87;94274.72;4896143;29;20196;-82
2022/08/28 10:38:31;;;;;;;6.72;5.53;;;;;;;31.65;38.96;94559.50;4895784;29;20196;-79
2022/08/28 10:41:11;;;;;;;13.80;5.88;;;;;;;31.62;39.11;94551.31;4895588;29;20212;-80
2022/08/28 10:43:45;;;;;;;9.02;5.60;;;;;;;30.28;39.28;94359.28;4895699;29;20210;-79
2022/08/28 10:46:19;;;;;;;7.28;5.63;;;;;;;30.49;38.68;94385.34;4895776;29;20737;-80
2022/08/28 10:49:00;;;;;;;7.70;4.53;;;;;;;30.48;39.31;94378.50;4896083;29;20251;-81
2022/08/28 10:51:39;;;;;;;17.08;5.90;;;;;;;30.17;38.84;94359.31;4900083;29;20691;-82
2022/08/28 10:54:25;;;;;;;18.05;6.43;;;;;;;30.84;38.85;94438.31;4904993;29;20227;-81
2022/08/28 10:56:58;;;;;;;11.30;5.80;;;;;;;31.42;38.17;94523.13;4899913;29;20287;-78
2022/08/28 10:59:35;;;;;;;9.15;5.43;;;;;;;31.40;37.60;94535.84;4899944;29;20283;-81
2022/08/28 11:02:13;;;;;;;6.22;5.07;;;;;;;30.73;38.24;94416.41;4895419;29;20204;-79
2022/08/28 11:04:40;;;;;;;18.23;5.15;;;;;;;31.06;38.41;94461.72;4894733;29;20239;-78
2022/08/28 11:07:19;;;;;;;9.13;5.47;;;;;;;31.48;38.00;94517.56;4894721;29;20655;-79
2022/08/28 11:09:49;;;;;;;9.68;5.32;;;;;;;31.44;37.12;94532.38;4913273;29;20241;-76
2022/08/28 11:12:41;;;;;;;10.48;4.85;;;;;;;30.82;37.08;94427.22;4962195;28;20236;-77
2022/08/28 11:15:46;;;;;;;13.05;5.60;;;;;;;31.65;37.75;94543.63;4992352;28;20287;-77
2022/08/28 11:18:55;;;;;;;7.55;5.07;;;;;;;31.66;37.33;94539.13;4991888;28;20204;-78
2022/08/28 11:21:28;;;;;;;12.43;5.45;;;;;;;31.55;37.12;94537.59;4992148;28;20255;-78
2022/08/28 11:24:02;;;;;;;13.23;5.75;;;;;;;31.64;37.72;94539.38;4992045;28;20310;-78
2022/08/28 11:26:37;;;;;;;8.95;5.60;;;;;;;31.61;37.57;94528.59;4991773;28;20196;-79
2022/08/28 11:29:06;;;;;;;12.15;5.82;;;;;;;31.67;37.76;94538.84;4992842;28;20227;-77
2022/08/28 11:31:59;;;;;;;9.65;5.53;;;;;;;31.47;37.63;94499.31;4991929;28;20193;-77
2022/08/28 11:34:57;;;;;;;9.85;5.13;;;;;;;31.73;37.48;94523.72;4990866;28;20181;-81
2022/08/28 11:37:39;;;;;;;9.70;5.93;;;;;;;31.35;37.15;94461.88;4992030;28;20231;-77
2022/08/28 11:40:19;;;;;;;11.23;6.07;;;;;;;31.71;37.69;94518.72;4991762;28;20223;-81
2022/08/28 11:42:48;;;;;;;11.95;5.53;;;;;;;31.64;37.56;94522.75;4991801;28;20189;-82
2022/08/28 11:45:40;;;;;;;15.00;5.78;;;;;;;31.70;37.58;94517.16;4991392;28;20201;-82
2022/08/28 11:48:07;;;;;;;7.75;5.10;;;;;;;31.75;37.58;94518.97;4991783;28;20198;-81
2022/08/28 11:50:54;;;;;;;9.23;5.63;;;;;;;31.80;37.83;94512.88;4991609;28;20231;-80
2022/08/28 11:53:42;;;;;;;12.57;5.03;;;;;;;31.80;37.30;94511.00;4990860;28;20189;-82
2022/08/28 11:56:35;;;;;;;15.57;5.47;;;;;;;31.79;37.69;94509.44;4991955;28;20185;-80
2022/08/28 11:59:25;;;;;;;10.07;5.22;;;;;;;31.73;37.51;94506.00;4987366;28;20197;-81